Time;durP1;ratioP1;P1;durP2;ratioP2;P2;SDS_P1;SDS_P2;PMS_P1;PMS_P2;Temp;Humidity;BMP_temperature;BMP_pressure;BME280_temperature;BME280_humidity;BME280_pressure;Samples;Min_cycle;Max_cycle;Signal;HPM_P1;HPM_P2
2023/08/08 00:02:19;;;;;;;3.75;0.80;;;14.50;81.60;;;;;;6165262;23;20024;-87
2023/08/08 00:04:48;;;;;;;2.65;0.80;;;14.50;81.80;;;;;;6185428;23;20013;-88
2023/08/08 00:07:15;;;;;;;5.00;0.77;;;14.50;81.90;;;;;;6165064;23;20027;-88
2023/08/08 00:09:42;;;;;;;5.65;1.13;;;14.40;82.00;;;;;;6160737;23;20041;-87
2023/08/08 00:12:09;;;;;;;3.20;0.77;;;14.40;82.20;;;;;;6190097;23;20027;-88
2023/08/08 00:14:36;;;;;;;5.50;1.63;;;14.40;82.10;;;;;;6160316;23;20104;-88
2023/08/08 00:17:03;;;;;;;4.00;0.70;;;14.30;82.40;;;;;;6213869;23;20440;-88
2023/08/08 00:19:30;;;;;;;2.80;0.75;;;14.40;82.40;;;;;;6165913;23;20020;-88
2023/08/08 00:21:57;;;;;;;1.90;0.60;;;14.40;82.20;;;;;;6190135;23;20024;-88
2023/08/08 00:24:25;;;;;;;3.53;0.80;;;14.30;81.60;;;;;;6160341;23;20443;-88
2023/08/08 00:26:52;;;;;;;2.90;0.70;;;14.30;81.30;;;;;;6161572;23;20020;-88
2023/08/08 00:29:19;;;;;;;4.30;0.80;;;14.20;81.50;;;;;;6184994;23;20024;-88
2023/08/08 00:31:46;;;;;;;3.92;1.02;;;14.20;81.90;;;;;;6155652;23;20021;-88
2023/08/08 00:34:14;;;;;;;3.80;0.93;;;14.30;81.70;;;;;;6189921;23;20028;-88
2023/08/08 00:36:40;;;;;;;2.97;0.70;;;14.30;81.70;;;;;;6215020;23;20099;-88
2023/08/08 00:39:08;;;;;;;4.88;1.20;;;14.40;81.10;;;;;;6189631;23;20024;-88
2023/08/08 00:41:35;;;;;;;3.85;0.80;;;14.30;80.80;;;;;;6190137;23;20103;-88
2023/08/08 00:44:02;;;;;;;2.50;0.70;;;14.40;80.70;;;;;;6189822;23;20043;-88
2023/08/08 00:46:29;;;;;;;2.67;0.80;;;14.40;80.50;;;;;;6160239;23;20023;-88
2023/08/08 00:48:57;;;;;;;3.47;0.70;;;14.40;80.70;;;;;;6187214;23;20020;-88
2023/08/08 00:51:25;;;;;;;2.42;0.70;;;14.40;79.70;;;;;;6184835;23;20023;-88
2023/08/08 00:53:54;;;;;;;2.78;0.80;;;14.50;79.50;;;;;;6184565;23;20021;-88
2023/08/08 00:56:21;;;;;;;3.15;0.80;;;14.50;79.80;;;;;;6149741;23;20410;-87
2023/08/08 00:58:50;;;;;;;2.70;0.77;;;14.60;79.70;;;;;;6173525;23;20354;-88
2023/08/08 01:01:19;;;;;;;5.67;1.00;;;14.60;79.30;;;;;;6159992;23;20041;-89
2023/08/08 01:03:46;;;;;;;2.72;0.65;;;14.60;79.10;;;;;;6179990;23;20021;-87
2023/08/08 01:06:25;;;;;;;4.75;0.80;;;14.60;78.60;;;;;;6214740;23;20031;-88
2023/08/08 01:09:04;;;;;;;3.60;0.80;;;14.50;78.50;;;;;;6214706;23;20020;-88
2023/08/08 01:11:34;;;;;;;3.22;0.70;;;14.50;78.90;;;;;;6164990;23;20016;-88
2023/08/08 01:14:03;;;;;;;6.07;0.80;;;14.50;78.90;;;;;;6163124;23;20021;-87
2023/08/08 01:16:31;;;;;;;5.18;1.10;;;14.50;78.60;;;;;;6164981;23;20017;-88
2023/08/08 01:18:59;;;;;;;4.40;0.80;;;14.50;78.30;;;;;;6162660;23;20017;-88
2023/08/08 01:21:30;;;;;;;5.32;0.85;;;14.50;78.10;;;;;;6189676;23;20017;-88
2023/08/08 01:24:32;;;;;;;3.58;0.80;;;14.40;78.20;;;;;;6189727;23;20016;-88
2023/08/08 01:27:00;;;;;;;2.83;0.70;;;14.30;78.20;;;;;;6177946;23;20019;-88
2023/08/08 01:29:28;;;;;;;3.78;0.90;;;14.40;78.20;;;;;;6214499;23;20059;-88
2023/08/08 01:31:55;;;;;;;5.72;0.82;;;14.40;78.30;;;;;;6189399;23;20103;-88
2023/08/08 01:34:23;;;;;;;4.25;1.00;;;14.30;78.20;;;;;;6185061;23;20032;-87
2023/08/08 01:37:02;;;;;;;3.40;0.90;;;14.30;78.20;;;;;;6210800;23;20028;-88
2023/08/08 01:39:32;;;;;;;5.57;0.90;;;14.30;77.90;;;;;;6184808;23;20112;-87
2023/08/08 01:42:00;;;;;;;5.63;1.17;;;14.30;78.20;;;;;;6212920;23;20059;-88
2023/08/08 01:44:29;;;;;;;3.40;0.95;;;14.30;78.10;;;;;;6184319;23;20021;-88
2023/08/08 01:46:56;;;;;;;5.05;1.23;;;14.30;78.40;;;;;;6162150;23;20072;-88
2023/08/08 01:49:23;;;;;;;6.68;1.30;;;14.30;78.20;;;;;;6160149;23;20044;-88
2023/08/08 01:51:52;;;;;;;3.63;0.80;;;14.20;77.80;;;;;;6210794;23;20013;-88
2023/08/08 01:54:19;;;;;;;4.35;1.00;;;14.30;78.30;;;;;;6159766;23;20021;-90
2023/08/08 01:56:46;;;;;;;3.88;0.90;;;14.20;78.60;;;;;;6155568;23;20020;-88
2023/08/08 01:59:13;;;;;;;5.78;1.33;;;14.20;78.40;;;;;;6159400;23;20032;-87
2023/08/08 02:01:42;;;;;;;4.72;0.90;;;14.20;78.90;;;;;;6203503;23;20020;-88
2023/08/08 02:04:09;;;;;;;4.70;1.20;;;14.10;78.60;;;;;;6189296;23;20020;-88
2023/08/08 02:06:36;;;;;;;5.30;1.27;;;14.20;78.90;;;;;;6189469;23;20023;-88
2023/08/08 02:09:04;;;;;;;3.78;1.27;;;14.20;78.50;;;;;;6189298;23;20017;-88
2023/08/08 02:11:31;;;;;;;5.45;1.13;;;14.20;78.70;;;;;;6206161;23;20048;-88
2023/08/08 02:13:58;;;;;;;4.38;1.08;;;14.10;78.20;;;;;;6188806;23;20044;-88
2023/08/08 02:16:25;;;;;;;4.73;0.83;;;14.20;78.50;;;;;;6164683;23;20024;-88
2023/08/08 02:18:53;;;;;;;5.57;0.90;;;14.20;78.50;;;;;;6162291;23;20021;-88
2023/08/08 02:21:20;;;;;;;4.50;0.90;;;14.10;78.20;;;;;;6218096;23;20040;-88
2023/08/08 02:23:53;;;;;;;4.03;0.98;;;14.10;77.70;;;;;;6163233;23;20025;-88
2023/08/08 02:26:20;;;;;;;5.50;1.10;;;14.10;77.60;;;;;;6166593;23;20504;-88
2023/08/08 02:28:47;;;;;;;4.37;1.00;;;14.10;77.90;;;;;;6191225;23;20017;-87
2023/08/08 02:31:20;;;;;;;4.82;0.88;;;14.10;77.70;;;;;;6166403;23;20020;-88
2023/08/08 02:33:50;;;;;;;4.85;1.23;;;14.10;77.80;;;;;;6191343;23;20043;-88
2023/08/08 02:36:18;;;;;;;5.13;1.00;;;14.00;77.90;;;;;;6161429;23;20395;-88
2023/08/08 02:38:45;;;;;;;4.68;1.20;;;14.00;77.80;;;;;;6156482;23;20059;-88
2023/08/08 02:41:12;;;;;;;3.67;1.10;;;14.00;78.10;;;;;;6161412;23;20028;-88
2023/08/08 02:43:39;;;;;;;5.68;1.20;;;14.00;78.00;;;;;;6209668;23;20021;-88
2023/08/08 02:46:06;;;;;;;4.03;1.10;;;14.00;77.90;;;;;;6191132;23;20057;-88
2023/08/08 02:48:33;;;;;;;7.15;1.23;;;14.00;77.70;;;;;;6191223;23;20392;-88
2023/08/08 02:51:00;;;;;;;4.55;1.10;;;14.00;77.70;;;;;;6216168;23;20112;-88
2023/08/08 02:53:27;;;;;;;5.00;1.30;;;14.00;77.60;;;;;;6161534;23;20044;-88
2023/08/08 02:55:54;;;;;;;4.47;0.98;;;14.00;77.20;;;;;;6213359;23;20035;-88
2023/08/08 02:58:22;;;;;;;3.85;1.02;;;14.00;77.40;;;;;;6166211;23;20485;-88
2023/08/08 03:00:49;;;;;;;6.45;1.25;;;14.00;77.10;;;;;;6186635;23;20032;-88
2023/08/08 03:03:17;;;;;;;3.88;1.02;;;14.00;76.60;;;;;;6161881;23;20017;-88
2023/08/08 03:05:46;;;;;;;5.60;1.20;;;14.00;77.00;;;;;;6180553;23;20363;-88
2023/08/08 03:08:15;;;;;;;5.13;1.30;;;14.00;77.20;;;;;;6191574;23;20013;-88
2023/08/08 03:10:43;;;;;;;3.75;1.08;;;14.00;76.70;;;;;;6190880;23;20020;-88
2023/08/08 03:13:13;;;;;;;3.63;1.05;;;14.00;76.60;;;;;;6215123;23;20013;-88
2023/08/08 03:15:41;;;;;;;5.25;0.98;;;14.00;76.10;;;;;;6166478;23;20024;-88
2023/08/08 03:18:09;;;;;;;4.83;1.60;;;14.00;75.60;;;;;;6166155;23;20050;-89
2023/08/08 03:20:36;;;;;;;5.10;1.67;;;14.00;76.00;;;;;;6190822;23;20022;-88
2023/08/08 03:23:04;;;;;;;4.78;1.20;;;13.90;76.10;;;;;;6215576;23;20040;-88
2023/08/08 03:25:32;;;;;;;6.40;1.90;;;13.90;76.30;;;;;;6190442;23;20012;-88
2023/08/08 03:27:59;;;;;;;5.80;1.33;;;13.90;76.20;;;;;;6213653;23;20044;-88
2023/08/08 03:30:26;;;;;;;5.00;1.50;;;13.90;76.20;;;;;;6215363;23;20020;-88
2023/08/08 03:32:53;;;;;;;6.38;1.80;;;13.90;76.50;;;;;;6190632;23;20024;-88
2023/08/08 03:35:22;;;;;;;6.40;1.90;;;13.90;76.50;;;;;;6166012;23;20386;-88
2023/08/08 03:37:49;;;;;;;4.25;1.60;;;14.00;76.00;;;;;;6166035;23;20030;-88
2023/08/08 03:40:16;;;;;;;4.35;1.40;;;14.00;76.10;;;;;;6190887;23;20451;-88
2023/08/08 03:42:43;;;;;;;5.93;1.53;;;14.00;75.70;;;;;;6190382;23;20111;-88
2023/08/08 03:45:10;;;;;;;5.05;1.40;;;14.00;75.40;;;;;;6215092;23;20083;-88
2023/08/08 03:47:37;;;;;;;6.57;1.77;;;14.00;75.70;;;;;;6215029;23;20027;-88
2023/08/08 03:50:06;;;;;;;3.75;1.40;;;14.00;75.10;;;;;;6190460;23;20525;-88
2023/08/08 03:52:35;;;;;;;6.45;1.55;;;14.10;75.40;;;;;;6160512;23;20021;-88
2023/08/08 03:55:03;;;;;;;4.57;1.50;;;14.10;75.50;;;;;;6164849;23;20025;-88
2023/08/08 03:57:36;;;;;;;6.07;1.83;;;14.00;74.90;;;;;;6160773;23;20032;-88
2023/08/08 04:00:04;;;;;;;4.38;1.50;;;14.00;75.00;;;;;;6164444;23;20020;-88
2023/08/08 04:02:38;;;;;;;6.32;1.80;;;14.10;74.90;;;;;;6192061;23;20028;-88
2023/08/08 04:05:06;;;;;;;6.78;2.22;;;14.10;74.80;;;;;;6189776;23;20076;-88
2023/08/08 04:07:34;;;;;;;5.20;1.50;;;14.10;74.70;;;;;;6160505;23;20458;-88
2023/08/08 04:10:01;;;;;;;3.67;1.42;;;14.10;75.10;;;;;;6188157;23;20520;-88
2023/08/08 04:12:29;;;;;;;7.65;1.73;;;14.10;74.70;;;;;;6160725;23;20027;-89
2023/08/08 04:14:56;;;;;;;4.75;1.90;;;14.20;74.70;;;;;;6185245;23;20072;-88
2023/08/08 04:17:23;;;;;;;5.40;1.50;;;14.20;74.50;;;;;;6160852;23;20029;-88
2023/08/08 04:19:50;;;;;;;4.60;1.57;;;14.20;74.30;;;;;;6181997;23;20075;-88
2023/08/08 04:22:17;;;;;;;4.63;1.40;;;14.20;74.20;;;;;;6160634;23;20025;-88
2023/08/08 04:24:44;;;;;;;5.28;1.85;;;14.20;74.30;;;;;;6184932;23;20052;-89
2023/08/08 04:27:11;;;;;;;4.47;1.15;;;14.30;74.10;;;;;;6190180;23;20027;-88
2023/08/08 04:29:38;;;;;;;5.70;1.85;;;14.20;73.90;;;;;;6190661;23;20095;-88
2023/08/08 04:32:06;;;;;;;4.57;1.77;;;14.20;74.50;;;;;;6165612;23;20493;-88
2023/08/08 04:34:33;;;;;;;4.28;1.35;;;14.20;74.30;;;;;;6165642;23;20107;-88
2023/08/08 04:37:00;;;;;;;5.70;1.60;;;14.20;74.20;;;;;;6165759;23;20446;-89
2023/08/08 04:39:27;;;;;;;6.25;1.88;;;14.10;74.60;;;;;;6185302;23;20355;-88
2023/08/08 04:41:54;;;;;;;5.97;1.55;;;14.10;74.60;;;;;;6186827;23;20031;-88
2023/08/08 04:44:21;;;;;;;5.40;1.83;;;14.10;75.20;;;;;;6184929;23;20056;-88
2023/08/08 04:46:48;;;;;;;4.90;1.73;;;14.20;75.30;;;;;;6185688;23;20028;-88
2023/08/08 04:49:15;;;;;;;6.15;2.00;;;14.20;75.10;;;;;;6185207;23;20041;-89
2023/08/08 04:51:42;;;;;;;5.47;1.90;;;14.30;74.90;;;;;;6209964;23;20071;-88
2023/08/08 04:54:09;;;;;;;7.43;3.05;;;14.40;74.40;;;;;;6214932;23;20024;-88
2023/08/08 04:56:36;;;;;;;9.67;3.37;;;14.50;74.40;;;;;;6159975;23;20033;-89
2023/08/08 04:59:03;;;;;;;7.63;2.60;;;14.50;74.00;;;;;;6214032;23;20391;-87
2023/08/08 05:01:30;;;;;;;6.13;2.63;;;14.50;74.40;;;;;;6182392;23;20031;-89
2023/08/08 05:03:57;;;;;;;7.72;2.65;;;14.50;74.00;;;;;;6162798;23;20529;-88
2023/08/08 05:06:24;;;;;;;7.30;3.47;;;14.50;74.40;;;;;;6160314;23;20045;-88
2023/08/08 05:08:52;;;;;;;7.17;2.57;;;14.50;73.90;;;;;;6186414;23;20020;-88
2023/08/08 05:11:19;;;;;;;7.60;2.50;;;14.70;74.20;;;;;;6189616;23;20023;-88
2023/08/08 05:13:47;;;;;;;7.38;3.00;;;14.80;74.10;;;;;;6185735;23;20021;-89
2023/08/08 05:16:14;;;;;;;4.82;2.63;;;14.90;73.20;;;;;;6165240;23;20094;-88
2023/08/08 05:18:44;;;;;;;6.40;2.58;;;15.00;73.30;;;;;;6189864;23;20025;-88
2023/08/08 05:21:11;;;;;;;6.97;2.70;;;15.10;72.70;;;;;;6178169;23;20443;-89
2023/08/08 05:23:38;;;;;;;6.72;2.47;;;15.20;72.90;;;;;;6160288;23;20067;-88
2023/08/08 05:26:05;;;;;;;4.85;2.05;;;15.40;72.30;;;;;;6213762;23;20021;-89
2023/08/08 05:28:32;;;;;;;7.40;2.15;;;15.50;71.30;;;;;;6159908;23;20103;-88
2023/08/08 05:30:59;;;;;;;4.78;2.00;;;15.60;71.40;;;;;;6185537;23;20021;-89
2023/08/08 05:33:26;;;;;;;6.03;2.00;;;15.70;70.90;;;;;;6160161;23;20358;-88
2023/08/08 05:35:53;;;;;;;5.90;2.30;;;15.80;70.70;;;;;;6161942;23;20020;-89
2023/08/08 05:38:20;;;;;;;5.30;2.30;;;15.90;71.20;;;;;;6159862;23;20103;-89
2023/08/08 05:40:47;;;;;;;6.38;2.08;;;15.90;70.90;;;;;;6185363;23;20025;-88
2023/08/08 05:43:18;;;;;;;4.95;2.30;;;16.00;69.30;;;;;;6164996;23;20016;-88
2023/08/08 05:45:45;;;;;;;5.57;1.90;;;16.00;68.90;;;;;;6189713;23;20489;-88
2023/08/08 05:48:12;;;;;;;6.75;1.95;;;15.90;68.20;;;;;;6189871;23;20017;-87
2023/08/08 05:50:40;;;;;;;5.53;1.70;;;15.90;68.90;;;;;;6164341;23;20013;-88
2023/08/08 05:53:07;;;;;;;4.40;1.75;;;16.00;68.10;;;;;;6164704;23;20051;-88
2023/08/08 05:55:34;;;;;;;6.43;1.80;;;16.10;68.80;;;;;;6160227;23;20017;-89
2023/08/08 05:58:01;;;;;;;4.60;1.60;;;16.20;66.90;;;;;;6212463;23;20025;-88
2023/08/08 06:00:28;;;;;;;5.75;1.95;;;16.20;67.50;;;;;;6164879;23;20410;-88
2023/08/08 06:02:56;;;;;;;6.45;2.10;;;16.10;66.70;;;;;;6214343;23;20031;-88
2023/08/08 06:05:26;;;;;;;9.10;1.80;;;16.00;66.00;;;;;;6183989;23;20488;-89
2023/08/08 06:07:54;;;;;;;5.78;1.95;;;16.10;67.90;;;;;;6135194;23;20021;-88
2023/08/08 06:10:22;;;;;;;4.33;1.40;;;16.20;67.10;;;;;;6160394;23;20021;-88
2023/08/08 06:12:49;;;;;;;5.30;1.60;;;16.30;67.40;;;;;;6184406;23;20017;-88
2023/08/08 06:15:16;;;;;;;6.03;2.00;;;16.40;67.00;;;;;;6159997;23;20367;-88
2023/08/08 06:17:43;;;;;;;5.68;1.60;;;16.50;66.90;;;;;;6184424;23;20060;-89
2023/08/08 06:20:10;;;;;;;6.38;2.03;;;16.60;65.10;;;;;;6184608;23;20431;-88
2023/08/08 06:22:38;;;;;;;10.40;2.43;;;16.60;66.00;;;;;;6159597;23;20021;-88
2023/08/08 06:25:06;;;;;;;5.90;1.83;;;16.60;64.90;;;;;;6184808;23;20017;-89
2023/08/08 06:27:33;;;;;;;8.23;1.58;;;16.60;64.90;;;;;;6184791;23;20017;-88
2023/08/08 06:30:00;;;;;;;6.68;1.98;;;16.50;64.10;;;;;;6159834;23;20100;-88
2023/08/08 06:32:27;;;;;;;4.95;1.67;;;16.60;65.20;;;;;;6184450;23;20013;-89
2023/08/08 06:34:55;;;;;;;7.23;2.07;;;16.60;65.00;;;;;;6184488;23;20025;-88
2023/08/08 06:37:22;;;;;;;5.35;1.80;;;16.80;65.30;;;;;;6159812;23;20052;-88
2023/08/08 06:39:49;;;;;;;4.68;1.40;;;16.80;65.50;;;;;;6184482;23;20031;-88
2023/08/08 06:42:16;;;;;;;5.45;1.77;;;16.90;65.10;;;;;;6159572;23;20021;-88
2023/08/08 06:44:53;;;;;;;6.00;1.70;;;17.00;65.50;;;;;;6159874;23;20051;-88
2023/08/08 06:47:21;;;;;;;5.73;1.60;;;17.10;65.40;;;;;;6184331;23;20013;-88
2023/08/08 06:49:47;;;;;;;4.97;1.52;;;17.10;64.20;;;;;;6159845;23;20013;-88
2023/08/08 06:52:14;;;;;;;4.88;1.73;;;17.10;64.00;;;;;;6159666;23;20021;-88
2023/08/08 06:54:41;;;;;;;5.72;1.85;;;17.20;63.60;;;;;;6134890;23;20444;-88
2023/08/08 06:57:08;;;;;;;6.15;1.75;;;17.30;64.10;;;;;;6159722;23;20072;-88
2023/08/08 06:59:35;;;;;;;5.03;1.70;;;17.30;63.30;;;;;;6159776;23;20108;-89
2023/08/08 07:02:03;;;;;;;6.93;2.25;;;17.30;62.70;;;;;;6184050;23;20407;-88
2023/08/08 07:04:30;;;;;;;4.05;1.33;;;17.40;63.70;;;;;;6189044;23;20028;-89
2023/08/08 07:06:57;;;;;;;5.57;1.65;;;17.50;62.80;;;;;;6190933;23;20012;-88
2023/08/08 07:09:25;;;;;;;8.75;1.95;;;17.50;62.00;;;;;;6216182;23;20074;-89
2023/08/08 07:11:52;;;;;;;4.83;1.77;;;17.60;61.80;;;;;;6216195;23;20016;-88
2023/08/08 07:14:19;;;;;;;4.95;1.30;;;17.70;61.00;;;;;;6166423;23;20021;-88
2023/08/08 07:16:48;;;;;;;5.95;1.42;;;17.60;61.00;;;;;;6166875;23;20027;-88
2023/08/08 07:19:15;;;;;;;10.23;1.40;;;17.70;61.40;;;;;;6166262;23;20028;-88
2023/08/08 07:21:42;;;;;;;6.00;1.42;;;17.70;60.80;;;;;;6166049;23;20020;-88
2023/08/08 07:24:09;;;;;;;4.60;1.30;;;17.80;60.50;;;;;;6166514;23;20024;-88
2023/08/08 07:26:37;;;;;;;6.55;1.52;;;17.80;62.20;;;;;;6215721;23;20443;-88
2023/08/08 07:29:05;;;;;;;5.65;1.75;;;17.80;61.60;;;;;;6216030;23;20347;-88
2023/08/08 07:31:33;;;;;;;6.80;1.63;;;17.80;61.30;;;;;;6215554;23;20447;-88
2023/08/08 07:34:00;;;;;;;4.85;1.60;;;18.00;61.70;;;;;;6215776;23;20016;-88
2023/08/08 07:36:27;;;;;;;5.03;1.63;;;18.00;60.80;;;;;;6166122;23;20111;-89
2023/08/08 07:38:59;;;;;;;6.18;1.77;;;18.20;62.40;;;;;;6190778;23;20024;-88
2023/08/08 07:41:29;;;;;;;5.45;1.70;;;18.40;61.20;;;;;;6191093;23;20032;-88
2023/08/08 07:43:56;;;;;;;4.97;1.55;;;18.70;60.40;;;;;;6166466;23;20023;-88
2023/08/08 07:46:23;;;;;;;4.85;1.45;;;18.70;58.30;;;;;;6215556;23;20100;-88
2023/08/08 07:48:50;;;;;;;5.43;1.40;;;18.50;59.20;;;;;;6190799;23;20020;-88
2023/08/08 07:51:17;;;;;;;5.32;1.60;;;18.40;58.70;;;;;;6190815;23;20100;-88
2023/08/08 07:53:44;;;;;;;5.53;1.60;;;18.20;59.80;;;;;;6215693;23;20032;-88
2023/08/08 07:56:13;;;;;;;4.80;1.60;;;18.00;59.00;;;;;;6215987;23;20075;-88
2023/08/08 07:58:40;;;;;;;4.72;1.75;;;17.90;60.20;;;;;;6166187;23;20044;-88
2023/08/08 08:01:07;;;;;;;8.00;1.70;;;17.90;60.90;;;;;;6190409;23;20028;-88
2023/08/08 08:03:36;;;;;;;7.55;1.65;;;18.00;61.20;;;;;;6160138;23;20050;-88
2023/08/08 08:06:04;;;;;;;5.60;1.70;;;18.00;61.20;;;;;;6134968;23;20018;-88
2023/08/08 08:08:31;;;;;;;5.38;1.55;;;18.00;61.50;;;;;;6160893;23;20021;-88
2023/08/08 08:10:59;;;;;;;4.97;2.00;;;18.00;60.80;;;;;;6161206;23;20100;-88
2023/08/08 08:13:26;;;;;;;6.90;1.90;;;18.00;60.40;;;;;;6136219;23;20108;-88
2023/08/08 08:15:53;;;;;;;5.55;1.90;;;17.80;61.10;;;;;;6136140;23;20025;-88
2023/08/08 08:18:20;;;;;;;4.97;1.60;;;17.80;60.40;;;;;;6136180;23;20020;-88
2023/08/08 08:20:48;;;;;;;4.47;1.90;;;17.60;61.40;;;;;;6160934;23;20025;-88
2023/08/08 08:23:15;;;;;;;5.45;1.92;;;17.60;61.90;;;;;;6160649;23;20043;-88
2023/08/08 08:25:43;;;;;;;4.53;1.70;;;17.60;62.30;;;;;;6136120;23;20475;-88
2023/08/08 08:28:10;;;;;;;5.97;2.00;;;17.60;62.20;;;;;;6136161;23;20017;-88
2023/08/08 08:30:37;;;;;;;5.65;1.95;;;17.60;62.70;;;;;;6160685;23;20100;-88
2023/08/08 08:33:07;;;;;;;7.22;2.03;;;17.70;63.00;;;;;;6136326;23;20100;-88
2023/08/08 08:35:35;;;;;;;6.75;1.88;;;17.70;62.80;;;;;;6160646;23;20462;-89
2023/08/08 08:38:03;;;;;;;5.33;1.80;;;17.70;62.90;;;;;;6136112;23;20389;-88
2023/08/08 08:40:36;;;;;;;5.75;1.63;;;17.80;62.80;;;;;;6135978;23;20045;-88
2023/08/08 08:43:04;;;;;;;5.72;1.88;;;17.80;62.90;;;;;;6160938;23;20017;-88
2023/08/08 08:45:33;;;;;;;5.15;1.85;;;17.90;62.60;;;;;;6160711;23;20021;-87
2023/08/08 08:48:01;;;;;;;4.70;1.38;;;18.00;62.90;;;;;;6135530;23;20017;-88
2023/08/08 08:50:32;;;;;;;4.83;1.80;;;18.40;61.10;;;;;;6160502;23;20108;-88
2023/08/08 08:53:01;;;;;;;4.07;1.70;;;18.50;60.40;;;;;;6135809;23;20017;-88
2023/08/08 08:55:28;;;;;;;10.98;3.70;;;18.40;58.20;;;;;;6152125;23;20028;-88
2023/08/08 08:57:55;;;;;;;6.38;2.17;;;18.30;58.80;;;;;;6160442;23;20020;-89
2023/08/08 09:00:22;;;;;;;8.38;2.53;;;18.30;58.90;;;;;;6135933;23;20052;-88
2023/08/08 09:02:50;;;;;;;6.93;2.37;;;18.20;59.60;;;;;;6136072;23;20361;-87
2023/08/08 09:05:21;;;;;;;7.55;2.30;;;18.30;60.60;;;;;;6160215;23;20363;-88
2023/08/08 09:07:49;;;;;;;5.30;1.75;;;18.30;59.80;;;;;;6135830;23;20075;-88
2023/08/08 09:10:17;;;;;;;6.65;1.85;;;18.50;60.40;;;;;;6160056;23;20081;-88
2023/08/08 09:12:44;;;;;;;5.40;1.95;;;18.70;60.10;;;;;;6136212;23;20048;-88
2023/08/08 09:15:12;;;;;;;6.30;2.03;;;18.90;58.00;;;;;;6136097;23;20329;-88
2023/08/08 09:17:44;;;;;;;5.43;2.10;;;19.00;58.10;;;;;;6160391;23;20025;-88
2023/08/08 09:20:16;;;;;;;7.47;2.63;;;19.10;60.50;;;;;;6136152;23;20474;-88
2023/08/08 09:22:43;;;;;;;4.55;1.55;;;19.30;60.20;;;;;;6135551;23;20115;-88
2023/08/08 09:25:10;;;;;;;4.28;2.30;;;19.50;57.50;;;;;;6135714;23;20021;-88
2023/08/08 09:27:37;;;;;;;8.50;2.10;;;19.60;58.90;;;;;;6159520;23;20028;-88
2023/08/08 09:30:05;;;;;;;6.45;2.33;;;19.60;58.40;;;;;;6135793;23;20452;-88
2023/08/08 09:32:32;;;;;;;5.18;2.00;;;19.60;56.80;;;;;;6135740;23;20104;-88
2023/08/08 09:35:00;;;;;;;6.85;2.17;;;19.60;56.70;;;;;;6135357;23;20115;-88
2023/08/08 09:37:29;;;;;;;5.13;1.65;;;19.90;56.60;;;;;;6135775;23;20025;-88
2023/08/08 09:39:57;;;;;;;4.17;1.63;;;20.10;54.80;;;;;;6135089;23;20021;-88
2023/08/08 09:42:27;;;;;;;4.50;1.42;;;20.10;54.30;;;;;;6135308;23;20024;-88
2023/08/08 09:44:56;;;;;;;5.85;1.45;;;19.80;54.10;;;;;;6135515;23;20091;-88
2023/08/08 09:47:24;;;;;;;3.35;1.55;;;19.20;53.90;;;;;;6150045;23;20473;-88
2023/08/08 09:49:51;;;;;;;4.45;1.50;;;18.90;54.40;;;;;;6135746;23;20016;-87
2023/08/08 09:52:19;;;;;;;3.17;1.43;;;18.60;56.10;;;;;;6173827;23;20513;-88
2023/08/08 09:54:48;;;;;;;3.88;1.40;;;18.50;56.10;;;;;;6135383;23;20506;-88
2023/08/08 09:57:16;;;;;;;3.97;1.33;;;18.50;56.40;;;;;;6129970;23;20333;-88
2023/08/08 09:59:46;;;;;;;5.13;1.55;;;18.40;55.50;;;;;;6130310;23;20130;-88
2023/08/08 10:02:15;;;;;;;4.40;1.58;;;18.40;57.20;;;;;;6184522;23;20248;-88
2023/08/08 10:04:44;;;;;;;3.60;1.43;;;18.60;56.20;;;;;;6159466;23;20354;-88
2023/08/08 10:07:12;;;;;;;5.78;1.50;;;18.50;55.80;;;;;;6159578;23;20040;-88
2023/08/08 10:09:39;;;;;;;3.22;1.63;;;18.50;56.40;;;;;;6134652;23;20443;-88
2023/08/08 10:12:07;;;;;;;3.75;1.38;;;18.50;57.30;;;;;;6159945;23;20017;-88
2023/08/08 10:14:38;;;;;;;4.30;1.40;;;18.60;57.00;;;;;;6135362;23;20451;-88
2023/08/08 10:17:06;;;;;;;4.67;1.40;;;18.70;58.00;;;;;;6159706;23;20052;-88
2023/08/08 10:19:35;;;;;;;3.47;1.23;;;18.60;57.40;;;;;;6135269;23;20025;-88
2023/08/08 10:22:07;;;;;;;4.90;1.83;;;18.60;56.60;;;;;;6134827;23;20021;-87
2023/08/08 10:24:36;;;;;;;4.68;1.70;;;18.60;56.10;;;;;;6159863;23;20399;-88
2023/08/08 10:27:04;;;;;;;5.15;1.38;;;18.60;57.70;;;;;;6159116;23;20444;-88
2023/08/08 10:29:33;;;;;;;6.17;1.73;;;18.70;58.00;;;;;;6160018;23;20056;-88
2023/08/08 10:32:01;;;;;;;4.50;1.33;;;18.70;56.20;;;;;;6159595;23;20017;-88
2023/08/08 10:34:43;;;;;;;6.15;1.30;;;18.60;56.30;;;;;;6135567;23;20042;-88
2023/08/08 10:37:12;;;;;;;4.40;1.38;;;18.40;57.90;;;;;;6135208;23;20040;-88
2023/08/08 10:39:52;;;;;;;6.60;1.50;;;18.30;57.80;;;;;;6135598;23;20435;-88
2023/08/08 10:42:21;;;;;;;3.90;1.40;;;18.40;57.20;;;;;;6137317;23;20044;-89
2023/08/08 10:44:54;;;;;;;3.30;1.23;;;18.40;55.90;;;;;;6137511;23;20021;-88
2023/08/08 10:47:41;;;;;;;4.20;1.45;;;18.40;57.30;;;;;;6186291;23;20021;-88
2023/08/08 10:50:11;;;;;;;3.33;1.30;;;18.60;56.20;;;;;;6137271;23;20013;-88
2023/08/08 10:52:52;;;;;;;4.22;1.50;;;18.70;55.70;;;;;;6137073;23;20041;-89
2023/08/08 10:55:23;;;;;;;3.60;1.07;;;18.70;55.30;;;;;;6186415;23;20021;-88
2023/08/08 10:57:55;;;;;;;5.18;1.55;;;18.50;54.30;;;;;;6137134;23;20020;-88
2023/08/08 11:00:29;;;;;;;2.88;1.23;;;18.30;55.40;;;;;;6186234;23;20522;-88
2023/08/08 11:02:57;;;;;;;4.38;1.55;;;18.20;55.00;;;;;;6137170;23;20059;-88
2023/08/08 11:05:27;;;;;;;4.70;1.50;;;18.20;56.40;;;;;;6161874;23;20021;-88
2023/08/08 11:07:55;;;;;;;5.90;1.80;;;18.30;55.60;;;;;;6161019;23;20023;-88
2023/08/08 11:10:22;;;;;;;4.90;1.52;;;18.70;55.60;;;;;;6136861;23;20021;-88
2023/08/08 11:13:06;;;;;;;3.50;1.58;;;19.10;56.20;;;;;;6186132;23;20021;-88
2023/08/08 11:15:34;;;;;;;5.07;1.80;;;19.40;55.40;;;;;;6136547;23;20103;-88
2023/08/08 11:18:02;;;;;;;4.63;1.88;;;19.40;55.30;;;;;;6137132;23;20021;-88
2023/08/08 11:20:35;;;;;;;4.90;1.90;;;19.00;54.90;;;;;;6136976;23;20451;-88
2023/08/08 11:23:05;;;;;;;4.75;1.58;;;18.80;55.30;;;;;;6137053;23;20029;-88
2023/08/08 11:25:32;;;;;;;4.18;1.48;;;18.80;54.90;;;;;;6185712;23;20021;-88
2023/08/08 11:27:59;;;;;;;4.82;1.80;;;19.10;55.70;;;;;;6185870;23;20041;-88
2023/08/08 11:30:33;;;;;;;4.65;1.65;;;19.20;55.20;;;;;;6136539;23;20087;-88
2023/08/08 11:33:00;;;;;;;4.93;1.70;;;19.30;55.00;;;;;;6136452;23;20352;-88
2023/08/08 11:35:30;;;;;;;4.95;1.90;;;19.30;56.60;;;;;;6160779;23;20040;-89
2023/08/08 11:37:58;;;;;;;3.40;1.40;;;19.60;55.40;;;;;;6136389;23;20522;-88
2023/08/08 11:40:27;;;;;;;6.00;1.42;;;20.00;55.10;;;;;;6185339;23;20032;-88
2023/08/08 11:42:56;;;;;;;4.15;1.70;;;20.00;53.00;;;;;;6160416;23;20044;-87
2023/08/08 11:45:24;;;;;;;4.50;1.93;;;19.90;52.90;;;;;;6160444;23;20028;-87
2023/08/08 11:47:54;;;;;;;4.20;1.92;;;19.70;53.50;;;;;;6160159;23;20021;-87
2023/08/08 11:50:23;;;;;;;5.07;2.05;;;19.50;53.20;;;;;;6160297;23;20451;-87
2023/08/08 11:52:53;;;;;;;5.13;1.85;;;19.50;53.60;;;;;;6135754;23;20059;-87
2023/08/08 11:55:24;;;;;;;4.22;1.80;;;19.30;55.90;;;;;;6135851;23;20021;-87
2023/08/08 11:57:53;;;;;;;3.53;1.63;;;19.30;54.20;;;;;;6136462;23;20021;-87
2023/08/08 12:00:20;;;;;;;3.88;1.52;;;19.10;53.70;;;;;;6135947;23;21453;-87
2023/08/08 12:02:47;;;;;;;4.75;1.27;;;19.00;52.90;;;;;;6160843;23;20071;-87
2023/08/08 12:05:21;;;;;;;5.88;1.50;;;18.90;53.90;;;;;;6160187;23;20060;-87
2023/08/08 12:07:50;;;;;;;5.13;1.90;;;18.90;54.90;;;;;;6184684;23;20088;-87
2023/08/08 12:10:24;;;;;;;4.87;1.50;;;18.90;55.90;;;;;;6135790;23;20023;-87
2023/08/08 12:12:57;;;;;;;5.15;1.77;;;18.90;56.80;;;;;;6135878;23;20095;-87
2023/08/08 12:15:37;;;;;;;3.90;1.65;;;18.80;54.90;;;;;;6135118;23;20028;-87
2023/08/08 12:18:04;;;;;;;3.65;1.58;;;18.70;55.80;;;;;;6135478;23;20017;-87
2023/08/08 12:20:32;;;;;;;4.50;1.55;;;18.70;55.40;;;;;;6184837;23;20021;-87
2023/08/08 12:22:59;;;;;;;3.93;0.90;;;18.80;55.80;;;;;;6135379;23;20021;-87
2023/08/08 12:25:27;;;;;;;5.22;1.00;;;18.90;56.30;;;;;;6135193;23;20067;-87
2023/08/08 12:27:54;;;;;;;6.10;1.05;;;19.00;56.80;;;;;;6184330;23;20051;-87
2023/08/08 12:30:22;;;;;;;3.25;1.00;;;19.00;56.50;;;;;;6160049;23;20017;-87
2023/08/08 12:32:49;;;;;;;4.18;1.05;;;18.90;55.20;;;;;;6136069;23;20017;-87
2023/08/08 12:35:16;;;;;;;5.07;1.17;;;19.00;54.70;;;;;;6184497;23;20027;-87
2023/08/08 12:37:43;;;;;;;3.97;1.10;;;18.90;55.10;;;;;;6135226;23;20131;-86
2023/08/08 12:40:11;;;;;;;7.80;1.35;;;19.10;55.50;;;;;;6135006;23;20395;-87
2023/08/08 12:42:38;;;;;;;7.53;1.10;;;19.20;57.70;;;;;;6135716;23;20024;-87
2023/08/08 12:45:07;;;;;;;14.05;1.45;;;19.40;57.90;;;;;;6135412;23;20024;-88
2023/08/08 12:47:36;;;;;;;6.37;1.10;;;19.50;55.40;;;;;;6184571;23;20063;-87
2023/08/08 12:50:04;;;;;;;2.90;0.80;;;19.50;56.50;;;;;;6184481;23;20049;-87
2023/08/08 12:52:31;;;;;;;4.55;1.35;;;19.60;56.50;;;;;;6159905;23;20443;-86